createdAt,value
2019-03-30T00:00:47.263Z,28.2780
2019-03-30T00:01:49.558Z,28.2216
2019-03-30T00:02:51.854Z,28.2490
2019-03-30T00:03:54.145Z,28.2689
2019-03-30T00:04:56.436Z,28.3101
2019-03-30T00:05:58.735Z,28.3085
2019-03-30T00:07:01.030Z,28.2918
2019-03-30T00:08:03.330Z,28.2918
2019-03-30T00:09:05.645Z,28.2918
2019-03-30T00:10:07.942Z,28.2490
2019-03-30T00:11:10.232Z,28.2506
2019-03-30T00:12:12.521Z,28.2643
2019-03-30T00:13:14.823Z,28.3223
2019-03-30T00:14:17.116Z,28.2765
2019-03-30T00:15:19.408Z,28.2765
2019-03-30T00:16:21.703Z,28.2307
2019-03-30T00:17:23.999Z,28.2628
2019-03-30T00:18:26.288Z,28.2902
2019-03-30T00:19:34.835Z,28.2719
2019-03-30T00:20:36.835Z,28.3604
2019-03-30T00:21:39.125Z,28.3360
2019-03-30T00:22:41.428Z,28.2445
2019-03-30T00:23:43.722Z,28.2719
2019-03-30T00:24:46.006Z,28.3177
2019-03-30T00:25:48.314Z,28.3177
2019-03-30T00:26:50.603Z,28.2994
2019-03-30T00:27:52.886Z,28.2857
2019-03-30T00:28:55.191Z,28.2414
2019-03-30T00:29:57.510Z,28.3452
2019-03-30T00:30:59.804Z,28.2673
2019-03-30T00:32:02.107Z,28.3558
2019-03-30T00:33:04.406Z,28.3146
2019-03-30T00:34:06.711Z,28.2673
2019-03-30T00:35:09.003Z,28.3406
2019-03-30T00:36:11.305Z,28.3101
2019-03-30T00:37:13.602Z,28.2994
2019-03-30T00:38:15.892Z,28.3406
2019-03-30T00:39:18.200Z,28.3543
2019-03-30T00:40:28.656Z,28.3680
2019-03-30T00:41:30.969Z,28.3543
2019-03-30T00:42:33.340Z,28.3375
2019-03-30T00:43:35.674Z,28.3375
2019-03-30T00:44:37.990Z,28.3818
2019-03-30T00:45:40.310Z,28.3818
2019-03-30T00:46:42.619Z,28.3192
2019-03-30T00:47:44.948Z,28.3955
2019-03-30T00:48:47.276Z,28.4062
2019-03-30T00:49:50.277Z,28.3223
2019-03-30T00:50:52.661Z,28.3223
2019-03-30T00:51:54.984Z,28.3635
2019-03-30T00:52:57.307Z,28.3497
2019-03-30T00:53:59.652Z,28.3192
2019-03-30T00:55:01.964Z,28.3330
2019-03-30T00:56:04.274Z,28.3055
2019-03-30T00:57:06.586Z,28.3192
2019-03-30T00:58:08.906Z,28.3055
2019-03-30T00:59:11.230Z,28.4047
2019-03-30T01:00:13.540Z,28.3925
2019-03-30T01:01:15.853Z,28.3467
2019-03-30T01:02:18.194Z,28.3497
2019-03-30T01:03:20.734Z,28.3009
2019-03-30T01:04:23.033Z,28.2551
2019-03-30T01:05:25.348Z,28.3452
2019-03-30T01:06:27.664Z,28.2872
2019-03-30T01:07:29.982Z,28.3284
2019-03-30T01:08:32.292Z,28.3421
2019-03-30T01:09:34.638Z,28.2857
2019-03-30T01:10:36.981Z,28.4001
2019-03-30T01:11:47.233Z,28.3589
2019-03-30T01:12:49.536Z,28.2826
2019-03-30T01:13:51.826Z,28.2994
2019-03-30T01:14:54.115Z,28.2963
2019-03-30T01:15:56.413Z,28.2963
2019-03-30T01:16:58.700Z,28.3268
2019-03-30T01:18:00.990Z,28.3558
2019-03-30T01:19:03.284Z,28.2963
2019-03-30T01:20:05.584Z,28.3375
2019-03-30T01:21:07.867Z,28.3864
2019-03-30T01:22:10.170Z,28.3268
2019-03-30T01:23:12.459Z,28.3238
2019-03-30T01:24:14.759Z,28.3268
2019-03-30T01:25:17.064Z,28.3101
2019-03-30T01:26:19.417Z,28.3268
2019-03-30T01:27:21.715Z,28.3375
2019-03-30T01:28:24.007Z,28.2963
2019-03-30T01:29:26.305Z,28.2918
2019-03-30T01:30:28.600Z,28.2811
2019-03-30T01:31:30.990Z,28.2948
2019-03-30T01:32:35.015Z,28.3192
2019-03-30T01:33:37.548Z,28.3680
2019-03-30T01:34:39.837Z,28.3513
2019-03-30T01:35:42.132Z,28.3101
2019-03-30T01:36:44.502Z,28.3085
2019-03-30T01:37:47.196Z,28.3238
2019-03-30T01:38:49.523Z,28.3085
2019-03-30T01:39:51.820Z,28.2628
2019-03-30T01:40:54.111Z,28.2780
2019-03-30T01:41:56.413Z,28.3192
2019-03-30T01:42:58.703Z,28.3055
2019-03-30T01:44:00.992Z,28.3650
2019-03-30T01:45:03.289Z,28.3223
2019-03-30T01:46:05.586Z,28.3330
2019-03-30T01:47:07.873Z,28.2918
2019-03-30T01:48:10.173Z,28.3467
2019-03-30T01:49:12.467Z,28.2597
2019-03-30T01:50:17.662Z,28.2582
2019-03-30T01:51:20.328Z,28.2918
2019-03-30T01:52:22.625Z,28.3177
2019-03-30T01:53:24.923Z,28.2734
2019-03-30T01:54:27.212Z,28.2002
2019-03-30T01:55:29.508Z,28.1117
2019-03-30T01:56:31.819Z,28.2307
2019-03-30T01:57:34.113Z,28.2902
2019-03-30T01:58:36.405Z,28.2139
2019-03-30T01:59:38.695Z,28.1392
2019-03-30T02:00:40.981Z,28.1254
2019-03-30T02:01:43.274Z,28.2307
2019-03-30T02:02:45.580Z,28.1987
2019-03-30T02:03:47.870Z,28.3009
2019-03-30T02:04:50.166Z,28.2139
2019-03-30T02:06:00.210Z,28.1682
2019-03-30T02:07:02.532Z,28.2719
2019-03-30T02:08:04.851Z,28.2826
2019-03-30T02:09:07.133Z,28.3131
2019-03-30T02:11:51.318Z,28.2994
2019-03-30T02:12:53.609Z,28.4016
2019-03-30T02:13:55.903Z,28.2506
2019-03-30T02:14:58.194Z,28.2811
2019-03-30T02:16:09.266Z,28.2506
2019-03-30T02:17:11.582Z,28.4596
2019-03-30T02:18:13.885Z,28.2963
2019-03-30T02:19:16.183Z,28.4001
2019-03-30T02:20:30.349Z,28.2673
2019-03-30T02:21:26.716Z,28.3223
2019-03-30T02:22:29.038Z,28.2963
2019-03-30T02:23:31.336Z,28.4382
2019-03-30T02:24:33.700Z,28.3955
2019-03-30T02:25:35.999Z,28.3055
2019-03-30T02:26:38.291Z,28.4245
2019-03-30T02:27:40.601Z,28.3925
2019-03-30T02:28:42.899Z,28.4413
2019-03-30T02:29:45.185Z,28.4382
2019-03-30T02:30:47.480Z,28.2765
2019-03-30T02:31:49.786Z,28.4520
2019-03-30T02:32:52.096Z,28.4794
2019-03-30T02:33:54.398Z,28.2277
2019-03-30T02:34:56.686Z,28.4062
2019-03-30T02:35:59.035Z,28.2307
2019-03-30T02:37:01.345Z,28.3040
2019-03-30T02:38:03.680Z,28.4382
2019-03-30T02:39:05.986Z,28.3177
2019-03-30T02:40:08.330Z,28.2857
2019-03-30T02:41:10.685Z,28.3009
2019-03-30T02:42:12.992Z,28.4337
2019-03-30T02:43:15.371Z,28.2261
2019-03-30T02:44:17.681Z,28.2994
2019-03-30T02:45:19.995Z,28.2872
2019-03-30T02:46:22.297Z,28.3284
2019-03-30T02:47:24.595Z,28.4199
2019-03-30T02:48:26.922Z,28.3284
2019-03-30T02:49:29.226Z,28.3131
2019-03-30T02:50:47.807Z,28.3589
2019-03-30T02:51:39.769Z,28.2689
2019-03-30T02:52:42.073Z,28.2368
2019-03-30T02:53:44.387Z,28.4596
2019-03-30T02:54:46.787Z,28.5191
2019-03-30T02:55:49.083Z,28.4596
2019-03-30T02:56:51.380Z,28.4321
2019-03-30T02:57:53.680Z,28.2857
2019-03-30T02:58:55.996Z,28.4733
2019-03-30T02:59:58.293Z,28.3558
2019-03-30T03:01:00.589Z,28.2048
2019-03-30T03:02:02.903Z,28.3406
2019-03-30T03:03:05.297Z,28.2918
2019-03-30T03:04:07.614Z,28.4886
2019-03-30T03:05:09.917Z,28.4245
2019-03-30T03:06:12.221Z,28.4703
2019-03-30T03:07:14.520Z,28.4550
2019-03-30T03:08:16.812Z,28.3375
2019-03-30T03:09:19.113Z,28.3955
2019-03-30T03:10:21.417Z,28.3787
2019-03-30T03:11:23.722Z,28.4276
2019-03-30T03:12:26.012Z,28.3787
2019-03-30T03:13:28.309Z,28.4550
2019-03-30T03:14:30.625Z,28.4108
2019-03-30T03:15:32.917Z,28.4688
2019-03-30T03:16:35.218Z,28.3925
2019-03-30T03:17:37.507Z,28.4962
2019-03-30T03:18:39.813Z,28.3925
2019-03-30T03:19:42.130Z,28.3925
2019-03-30T03:20:44.414Z,28.4474
2019-03-30T03:21:46.725Z,28.4062
2019-03-30T03:22:49.019Z,28.4504
2019-03-30T03:23:51.312Z,28.4062
2019-03-30T03:24:53.626Z,28.5801
2019-03-30T03:25:55.933Z,28.5344
2019-03-30T03:26:58.223Z,28.5527
2019-03-30T03:28:00.540Z,28.7129
2019-03-30T03:29:02.849Z,28.6107
2019-03-30T03:30:05.186Z,28.4199
2019-03-30T03:31:07.497Z,28.5191
2019-03-30T03:32:09.790Z,28.6519
2019-03-30T03:33:12.096Z,28.6519
2019-03-30T03:34:14.416Z,28.5618
2019-03-30T03:35:16.724Z,28.6488
2019-03-30T03:36:19.046Z,28.6793
2019-03-30T03:37:43.405Z,28.6351
2019-03-30T03:38:37.609Z,28.6625
2019-03-30T03:39:48.846Z,28.5481
2019-03-30T03:40:51.141Z,28.7037
2019-03-30T03:41:53.449Z,28.6763
2019-03-30T03:42:55.748Z,28.6625
2019-03-30T03:43:58.044Z,28.5756
2019-03-30T03:45:00.691Z,28.6168
2019-03-30T03:46:03.020Z,28.6030
2019-03-30T03:47:05.325Z,28.5878
2019-03-30T03:48:07.622Z,28.6290
2019-03-30T03:49:09.926Z,28.6900
2019-03-30T03:50:12.238Z,28.6442
2019-03-30T03:51:25.553Z,28.7022
2019-03-30T03:52:22.808Z,28.5527
2019-03-30T03:53:25.100Z,28.6900
2019-03-30T03:54:27.389Z,28.7755
2019-03-30T03:55:29.694Z,28.7755
2019-03-30T03:56:32.051Z,28.7160
2019-03-30T03:57:34.353Z,28.8182
2019-03-30T03:58:36.651Z,28.6885
2019-03-30T03:59:38.957Z,28.8319
2019-03-30T04:00:41.261Z,28.7022
2019-03-30T04:01:43.576Z,28.8319
2019-03-30T04:02:45.883Z,28.7434
2019-03-30T04:03:48.165Z,28.8304
2019-03-30T04:04:50.479Z,28.7266
2019-03-30T04:05:52.773Z,28.7541
2019-03-30T04:06:55.097Z,28.8182
2019-03-30T04:07:57.409Z,28.9189
2019-03-30T04:08:59.884Z,28.7434
2019-03-30T04:10:02.193Z,28.9494
2019-03-30T04:11:04.498Z,28.7709
2019-03-30T04:12:06.830Z,28.9143
2019-03-30T04:13:09.144Z,28.9006
2019-03-30T04:14:11.462Z,28.9311
2019-03-30T04:15:13.758Z,28.8136
2019-03-30T04:16:16.054Z,28.7221
2019-03-30T04:17:18.379Z,28.8991
2019-03-30T04:18:20.681Z,28.8396
2019-03-30T04:19:22.986Z,28.9738
2019-03-30T04:20:25.282Z,28.8731
2019-03-30T04:21:42.924Z,28.9143
2019-03-30T04:22:35.869Z,28.8716
2019-03-30T04:23:38.180Z,28.8396
2019-03-30T04:24:40.477Z,28.7953
2019-03-30T04:25:42.785Z,28.8991
2019-03-30T04:26:45.089Z,28.9281
2019-03-30T04:27:47.416Z,28.8823
2019-03-30T04:28:49.713Z,28.8685
2019-03-30T04:29:51.996Z,28.9403
2019-03-30T04:30:54.333Z,28.7800
2019-03-30T04:31:56.630Z,28.9418
2019-03-30T04:32:58.983Z,28.8533
2019-03-30T04:34:01.317Z,28.7938
2019-03-30T04:35:03.616Z,28.9555
2019-03-30T04:36:05.917Z,28.9540
2019-03-30T04:37:08.227Z,28.9815
2019-03-30T04:38:14.093Z,28.8670
2019-03-30T04:39:16.729Z,28.9540
2019-03-30T04:40:19.166Z,29.0105
2019-03-30T04:41:21.487Z,29.0379
2019-03-30T04:42:23.811Z,28.9509
2019-03-30T04:43:26.135Z,28.8167
2019-03-30T04:44:28.442Z,29.0837
2019-03-30T04:45:30.754Z,28.9509
2019-03-30T04:46:33.053Z,29.0684
2019-03-30T04:47:35.370Z,28.8624
2019-03-30T04:48:37.697Z,28.9921
2019-03-30T04:49:40.006Z,29.1691
2019-03-30T04:50:42.311Z,29.1386
2019-03-30T04:51:56.867Z,29.0059
2019-03-30T04:52:52.862Z,28.9769
2019-03-30T04:53:55.254Z,29.0654
2019-03-30T04:54:57.551Z,28.9311
2019-03-30T04:55:59.854Z,29.2149
2019-03-30T04:57:02.176Z,29.0654
2019-03-30T04:58:04.479Z,29.2287
2019-03-30T04:59:06.826Z,29.1112
2019-03-30T05:00:09.120Z,29.1646
2019-03-30T05:01:11.416Z,29.1966
2019-03-30T05:02:13.709Z,29.1661
2019-03-30T05:03:16.018Z,29.2851
2019-03-30T05:04:18.389Z,29.0776
2019-03-30T05:05:20.674Z,29.1371
2019-03-30T05:06:22.970Z,29.0776
2019-03-30T05:07:25.264Z,29.1615
2019-03-30T05:08:27.568Z,29.1798
2019-03-30T05:09:29.885Z,29.0150
2019-03-30T05:10:32.185Z,29.2515
2019-03-30T05:11:34.484Z,29.1936
2019-03-30T05:12:36.780Z,29.1478
2019-03-30T05:13:39.078Z,29.1371
2019-03-30T05:14:41.403Z,29.3126
2019-03-30T05:15:43.698Z,29.1341
2019-03-30T05:16:46.011Z,29.1920
2019-03-30T05:17:48.340Z,28.9693
2019-03-30T05:18:50.654Z,29.2348
2019-03-30T05:19:52.963Z,29.0425
2019-03-30T05:20:55.264Z,29.2058
2019-03-30T05:22:11.081Z,29.0135
2019-03-30T05:23:05.825Z,29.1005
2019-03-30T05:24:08.119Z,29.2485
2019-03-30T05:25:10.413Z,29.2470
2019-03-30T05:26:12.708Z,29.2195
2019-03-30T05:27:15.003Z,29.0867
2019-03-30T05:28:17.378Z,29.1463
2019-03-30T05:29:19.674Z,29.3065
2019-03-30T05:30:22.003Z,29.1112
2019-03-30T05:31:24.304Z,29.1875
2019-03-30T05:32:26.615Z,29.2012
2019-03-30T05:33:28.914Z,29.0272
2019-03-30T05:34:31.204Z,28.9815
2019-03-30T05:35:33.500Z,28.9815
2019-03-30T05:36:35.784Z,28.9372
2019-03-30T05:37:38.086Z,28.9082
2019-03-30T05:38:40.375Z,28.8960
2019-03-30T05:39:42.671Z,28.9830
2019-03-30T05:40:44.969Z,28.9235
2019-03-30T05:41:47.256Z,28.9403
2019-03-30T05:42:49.550Z,28.9693
2019-03-30T05:43:51.873Z,29.0425
2019-03-30T05:44:57.540Z,28.9097
2019-03-30T05:46:00.182Z,29.0272
2019-03-30T05:47:02.474Z,28.9097
2019-03-30T05:48:04.766Z,28.9540
2019-03-30T05:49:07.062Z,28.9265
2019-03-30T05:50:09.362Z,28.8670
2019-03-30T05:51:11.671Z,28.9830
2019-03-30T05:52:25.970Z,28.9097
2019-03-30T05:53:22.223Z,28.8670
2019-03-30T05:54:24.517Z,29.0410
2019-03-30T05:55:26.813Z,28.9219
2019-03-30T05:56:29.115Z,28.9082
2019-03-30T05:57:31.405Z,28.9693
2019-03-30T05:58:33.703Z,28.9677
2019-03-30T05:59:36.004Z,29.0562
2019-03-30T06:00:38.290Z,29.0410
2019-03-30T06:01:40.597Z,28.9372
2019-03-30T06:02:42.892Z,28.9235
2019-03-30T06:03:45.194Z,28.9815
2019-03-30T06:04:47.491Z,28.9647
2019-03-30T06:05:49.867Z,28.9219
2019-03-30T06:06:52.170Z,28.9082
2019-03-30T06:07:54.468Z,28.9219
2019-03-30T06:08:56.766Z,28.9647
2019-03-30T06:09:59.060Z,28.9372
2019-03-30T06:11:01.357Z,28.9219
2019-03-30T06:12:03.656Z,28.9494
2019-03-30T06:13:06.047Z,29.0059
2019-03-30T06:14:08.353Z,29.0684
2019-03-30T06:15:10.651Z,28.9082
2019-03-30T06:16:12.946Z,28.8640
2019-03-30T06:17:15.257Z,29.0227
2019-03-30T06:18:17.552Z,29.0379
2019-03-30T06:19:19.854Z,28.9631
2019-03-30T06:20:22.145Z,28.9815
2019-03-30T06:21:24.435Z,29.0700
2019-03-30T06:22:39.486Z,28.9189
2019-03-30T06:23:35.017Z,28.9952
2019-03-30T06:24:37.317Z,29.0089
2019-03-30T06:25:39.609Z,28.9357
2019-03-30T06:26:41.912Z,28.9784
2019-03-30T06:27:44.232Z,29.0059
2019-03-30T06:28:46.530Z,29.0517
2019-03-30T06:29:48.837Z,29.0089
2019-03-30T06:30:51.130Z,28.9784
2019-03-30T06:31:53.428Z,28.9952
2019-03-30T06:32:55.768Z,28.9952
2019-03-30T06:33:58.061Z,29.0517
2019-03-30T06:35:00.387Z,29.0517
2019-03-30T06:36:02.786Z,29.0089
2019-03-30T06:37:05.097Z,29.0089
2019-03-30T06:38:07.413Z,28.9647
2019-03-30T06:39:09.711Z,29.0089
2019-03-30T06:40:12.013Z,28.9830
2019-03-30T06:41:14.309Z,28.9815
2019-03-30T06:42:16.607Z,28.9509
2019-03-30T06:43:18.924Z,29.0105
2019-03-30T06:44:21.229Z,29.0974
2019-03-30T06:45:23.510Z,29.0242
2019-03-30T06:46:25.819Z,29.0410
2019-03-30T06:47:28.117Z,29.0089
2019-03-30T06:48:30.440Z,29.1005
2019-03-30T06:49:32.743Z,28.9967
2019-03-30T06:50:35.042Z,29.0547
2019-03-30T06:51:37.335Z,29.0562
2019-03-30T06:52:42.677Z,29.0425
2019-03-30T06:53:47.929Z,28.9967
2019-03-30T06:54:50.226Z,29.0410
2019-03-30T06:55:52.527Z,29.0730
2019-03-30T06:56:54.821Z,29.0089
2019-03-30T06:57:57.112Z,29.0105
2019-03-30T06:58:59.434Z,29.0867
2019-03-30T07:00:01.725Z,28.9830
2019-03-30T07:01:04.035Z,29.0593
2019-03-30T07:02:06.327Z,28.9998
2019-03-30T07:03:08.633Z,29.0135
2019-03-30T07:04:11.372Z,28.9860
2019-03-30T07:05:13.804Z,28.9265
2019-03-30T07:06:16.098Z,28.9693
2019-03-30T07:07:18.388Z,29.0593
2019-03-30T07:08:20.683Z,29.0745
2019-03-30T07:09:23.013Z,29.0135
2019-03-30T07:10:25.316Z,29.0883
2019-03-30T07:11:27.611Z,29.0013
2019-03-30T07:12:29.912Z,29.0776
2019-03-30T07:13:32.209Z,29.0455
2019-03-30T07:14:34.535Z,29.0608
2019-03-30T07:15:36.833Z,29.0318
2019-03-30T07:16:39.125Z,29.1341
2019-03-30T07:17:41.430Z,29.1051
2019-03-30T07:18:43.742Z,29.0883
2019-03-30T07:19:46.056Z,29.1051
2019-03-30T07:20:48.340Z,29.0929
2019-03-30T07:21:50.642Z,29.0913
2019-03-30T07:22:52.937Z,29.1051
2019-03-30T07:23:55.252Z,29.1524
2019-03-30T07:24:57.553Z,29.1661
2019-03-30T07:25:59.846Z,29.1829
2019-03-30T07:27:02.144Z,29.1798
2019-03-30T07:28:04.441Z,29.2149
2019-03-30T07:29:06.749Z,29.2149
2019-03-30T07:30:09.069Z,29.1279
2019-03-30T07:31:11.364Z,29.2424
2019-03-30T07:32:13.674Z,29.2287
2019-03-30T07:33:15.961Z,29.1981
2019-03-30T07:34:18.265Z,29.1417
2019-03-30T07:35:20.575Z,29.2149
2019-03-30T07:36:22.897Z,29.2576
2019-03-30T07:37:25.209Z,29.1844
2019-03-30T07:38:27.531Z,29.2012
2019-03-30T07:39:29.830Z,29.2302
2019-03-30T07:40:33.923Z,29.2607
2019-03-30T07:41:36.432Z,29.2439
2019-03-30T07:42:38.729Z,29.2027
2019-03-30T07:43:41.023Z,29.2348
2019-03-30T07:44:43.315Z,29.2470
2019-03-30T07:45:45.637Z,29.2348
2019-03-30T07:46:47.940Z,29.2378
2019-03-30T07:47:50.261Z,29.2653
2019-03-30T07:48:52.563Z,29.2790
2019-03-30T07:49:54.856Z,29.2195
2019-03-30T07:50:57.161Z,29.2485
2019-03-30T07:51:59.459Z,29.2805
2019-03-30T07:53:01.756Z,29.3248
2019-03-30T07:54:04.048Z,29.2653
2019-03-30T07:55:06.356Z,29.2653
2019-03-30T07:56:09.104Z,29.2805
2019-03-30T07:57:17.213Z,29.2531
2019-03-30T07:58:19.695Z,29.3248
2019-03-30T07:59:21.999Z,29.1920
2019-03-30T08:00:29.227Z,29.2805
2019-03-30T08:01:32.591Z,29.2668
2019-03-30T08:02:34.887Z,29.2836
2019-03-30T08:03:37.179Z,29.3248
2019-03-30T08:04:39.480Z,29.3263
2019-03-30T08:05:41.783Z,29.2393
2019-03-30T08:06:44.107Z,29.2531
2019-03-30T08:07:46.408Z,29.2531
2019-03-30T08:08:48.786Z,29.2531
2019-03-30T08:09:51.078Z,29.2393
2019-03-30T08:10:53.368Z,29.2393
2019-03-30T08:11:55.701Z,29.2531
2019-03-30T08:12:57.987Z,29.2256
2019-03-30T08:14:00.283Z,29.2424
2019-03-30T08:15:02.580Z,29.3156
2019-03-30T08:16:04.871Z,29.2531
2019-03-30T08:17:07.185Z,29.3019
2019-03-30T08:18:09.482Z,29.3126
2019-03-30T08:19:11.857Z,29.3019
2019-03-30T08:20:14.142Z,29.4347
2019-03-30T08:21:16.440Z,29.4347
2019-03-30T08:22:18.755Z,29.4041
2019-03-30T08:23:21.062Z,29.3767
2019-03-30T08:24:23.351Z,29.4942
2019-03-30T08:25:25.653Z,29.4667
2019-03-30T08:26:27.948Z,29.4530
2019-03-30T08:27:30.253Z,29.4636
2019-03-30T08:28:32.562Z,29.5369
2019-03-30T08:29:34.843Z,29.5872
2019-03-30T08:30:37.137Z,29.5415
2019-03-30T08:31:39.441Z,29.5857
2019-03-30T08:32:41.751Z,29.6010
2019-03-30T08:33:44.051Z,29.6330
2019-03-30T08:34:46.347Z,29.5995
2019-03-30T08:35:48.638Z,29.6880
2019-03-30T08:36:50.922Z,29.6452
2019-03-30T08:37:53.250Z,29.6315
2019-03-30T08:38:55.538Z,29.6315
2019-03-30T08:39:57.837Z,29.6468
2019-03-30T08:41:00.210Z,29.8100
2019-03-30T08:42:02.497Z,29.7063
2019-03-30T08:43:04.819Z,29.8100
2019-03-30T08:44:15.963Z,29.7505
2019-03-30T08:45:26.041Z,29.7658
2019-03-30T08:46:36.518Z,29.6651
2019-03-30T08:47:47.102Z,29.7978
2019-03-30T08:48:57.586Z,29.9153
2019-03-30T08:49:59.880Z,29.7383
2019-03-30T08:51:02.167Z,29.7658
2019-03-30T08:52:04.466Z,29.7414
2019-03-30T08:53:06.764Z,29.7688
2019-03-30T08:54:09.054Z,29.8283
2019-03-30T08:55:18.639Z,29.8283
2019-03-30T08:56:29.123Z,29.8283
2019-03-30T08:57:31.448Z,29.6971
2019-03-30T08:58:33.758Z,29.5781
2019-03-30T08:59:36.059Z,29.6559
2019-03-30T09:00:38.351Z,29.5506
2019-03-30T09:01:40.647Z,29.6269
2019-03-30T09:02:42.942Z,29.5995
2019-03-30T09:03:54.172Z,29.6696
2019-03-30T09:04:56.485Z,29.6834
2019-03-30T09:05:58.783Z,29.7734
2019-03-30T09:07:01.076Z,29.7185
2019-03-30T09:08:08.325Z,29.6742
2019-03-30T09:09:10.637Z,29.6132
2019-03-30T09:10:12.935Z,29.6590
2019-03-30T09:11:15.231Z,29.7612
2019-03-30T09:12:17.525Z,29.6605
2019-03-30T09:13:19.816Z,29.7505
2019-03-30T09:14:22.104Z,29.7368
2019-03-30T09:15:24.415Z,29.7200
2019-03-30T09:16:26.706Z,29.7200
2019-03-30T09:17:28.999Z,29.7520
2019-03-30T09:18:31.291Z,29.7093
2019-03-30T09:19:33.587Z,29.6819
2019-03-30T09:20:35.889Z,29.7230
2019-03-30T09:21:38.208Z,29.6925
2019-03-30T09:22:40.502Z,29.6330
2019-03-30T09:23:42.796Z,29.6925
2019-03-30T09:24:45.088Z,29.7108
2019-03-30T09:25:47.375Z,29.6925
2019-03-30T09:26:49.663Z,29.6956
2019-03-30T09:27:51.959Z,29.7108
2019-03-30T09:28:54.262Z,29.6651
2019-03-30T09:29:56.557Z,29.5766
2019-03-30T09:30:58.930Z,29.5949
2019-03-30T09:32:13.830Z,29.6513
2019-03-30T09:33:09.474Z,29.6971
2019-03-30T09:34:11.767Z,29.6834
2019-03-30T09:35:14.063Z,29.6239
2019-03-30T09:36:16.371Z,29.6132
2019-03-30T09:37:18.662Z,29.6086
2019-03-30T09:38:20.959Z,29.5811
2019-03-30T09:39:23.269Z,29.5827
2019-03-30T09:40:25.592Z,29.5399
2019-03-30T09:41:27.918Z,29.5399
2019-03-30T09:42:30.210Z,29.5262
2019-03-30T09:43:32.506Z,29.5277
2019-03-30T09:44:34.801Z,29.4957
2019-03-30T09:45:37.089Z,29.5415
2019-03-30T09:46:39.391Z,29.5125
2019-03-30T09:47:41.682Z,29.5125
2019-03-30T09:48:43.977Z,29.5277
2019-03-30T09:49:46.265Z,29.4865
2019-03-30T09:50:48.556Z,29.4850
2019-03-30T09:51:50.875Z,29.5460
2019-03-30T09:52:53.179Z,29.4713
2019-03-30T09:53:55.470Z,29.4865
2019-03-30T09:54:57.774Z,29.5003
2019-03-30T09:56:00.068Z,29.3858
2019-03-30T09:57:02.380Z,29.3980
2019-03-30T09:58:04.684Z,29.4133
2019-03-30T09:59:06.976Z,29.3721
2019-03-30T10:00:09.274Z,29.4438
2019-03-30T10:01:11.559Z,29.3126
2019-03-30T10:02:13.862Z,29.4209
2019-03-30T10:03:16.151Z,29.3446
2019-03-30T10:04:18.450Z,29.3446
2019-03-30T10:05:20.743Z,29.3477
2019-03-30T10:06:33.839Z,29.2393
2019-03-30T10:07:31.313Z,29.2897
2019-03-30T10:08:33.610Z,29.2607
2019-03-30T10:09:35.908Z,29.2149
2019-03-30T10:10:38.198Z,29.2302
2019-03-30T10:11:40.497Z,29.2897
2019-03-30T10:12:42.856Z,29.2012
2019-03-30T10:13:45.147Z,29.2424
2019-03-30T10:14:47.441Z,29.1737
2019-03-30T10:15:49.725Z,29.1737
2019-03-30T10:16:52.028Z,29.1600
2019-03-30T10:17:54.333Z,29.2027
2019-03-30T10:18:56.637Z,29.1890
2019-03-30T10:20:04.643Z,29.1600
2019-03-30T10:21:07.193Z,29.1478
2019-03-30T10:22:09.488Z,29.1920
2019-03-30T10:23:11.785Z,29.1325
2019-03-30T10:24:14.093Z,29.1478
2019-03-30T10:25:16.389Z,29.1051
2019-03-30T10:26:18.694Z,29.1020
2019-03-30T10:27:20.987Z,29.0455
2019-03-30T10:28:23.278Z,29.0318
2019-03-30T10:29:25.593Z,29.0059
2019-03-30T10:30:27.957Z,29.1051
2019-03-30T10:31:30.251Z,29.1341
2019-03-30T10:32:32.549Z,29.1341
2019-03-30T10:33:34.839Z,29.1188
2019-03-30T10:34:39.629Z,29.1203
2019-03-30T10:35:42.151Z,29.1188
2019-03-30T10:36:44.448Z,29.0471
2019-03-30T10:37:46.763Z,29.1096
2019-03-30T10:38:49.069Z,29.1096
2019-03-30T10:39:51.362Z,29.0227
2019-03-30T10:40:53.652Z,29.0089
2019-03-30T10:41:55.951Z,29.0227
2019-03-30T10:42:58.246Z,29.0364
2019-03-30T10:44:00.575Z,29.1096
2019-03-30T10:45:02.868Z,29.0959
2019-03-30T10:46:05.160Z,29.0959
2019-03-30T10:47:07.453Z,29.0974
2019-03-30T10:48:09.758Z,29.0837
2019-03-30T10:49:12.073Z,29.0684
2019-03-30T10:50:14.362Z,29.0974
2019-03-30T10:51:16.658Z,29.0654
2019-03-30T10:52:18.959Z,29.1417
2019-03-30T10:53:21.251Z,29.0837
2019-03-30T10:54:23.597Z,29.0974
2019-03-30T10:55:25.882Z,29.0974
2019-03-30T10:56:28.167Z,29.0547
2019-03-30T10:57:30.456Z,29.0272
2019-03-30T10:58:32.745Z,29.0242
2019-03-30T10:59:35.077Z,29.0684
2019-03-30T11:00:37.374Z,28.9815
2019-03-30T11:01:39.669Z,29.0547
2019-03-30T11:02:41.973Z,29.0547
2019-03-30T11:03:44.264Z,29.1615
2019-03-30T11:04:46.599Z,29.1737
2019-03-30T11:05:48.887Z,29.2210
2019-03-30T11:06:51.205Z,29.2378
2019-03-30T11:07:53.510Z,29.2058
2019-03-30T11:08:55.803Z,29.2485
2019-03-30T11:09:58.116Z,29.3538
2019-03-30T11:11:00.409Z,29.2790
2019-03-30T11:12:02.718Z,29.3538
2019-03-30T11:13:05.014Z,29.2973
2019-03-30T11:14:07.394Z,29.4118
2019-03-30T11:15:09.688Z,29.3812
2019-03-30T11:16:11.976Z,29.3812
2019-03-30T11:17:14.274Z,29.3812
2019-03-30T11:18:16.568Z,29.3706
2019-03-30T11:19:18.856Z,29.3675
2019-03-30T11:20:21.154Z,29.3675
2019-03-30T11:21:23.451Z,29.3111
2019-03-30T11:22:25.731Z,29.3431
2019-03-30T11:23:28.028Z,29.3248
2019-03-30T11:24:30.316Z,29.3248
2019-03-30T11:25:32.620Z,29.2378
2019-03-30T11:26:34.918Z,29.3400
2019-03-30T11:27:37.210Z,29.2668
2019-03-30T11:28:39.580Z,29.3584
2019-03-30T11:29:41.879Z,29.2988
2019-03-30T11:30:44.223Z,29.3431
2019-03-30T11:31:46.513Z,29.3019
2019-03-30T11:32:48.801Z,29.3584
2019-03-30T11:33:51.095Z,29.4026
2019-03-30T11:34:53.471Z,29.3812
2019-03-30T11:35:55.806Z,29.3568
2019-03-30T11:36:58.183Z,29.3431
2019-03-30T11:38:00.479Z,29.4026
2019-03-30T11:39:02.772Z,29.3019
2019-03-30T11:40:05.157Z,29.3858
2019-03-30T11:41:07.487Z,29.3721
2019-03-30T11:42:09.868Z,29.4774
2019-03-30T11:43:12.158Z,29.4179
2019-03-30T11:44:14.450Z,29.2714
2019-03-30T11:45:16.742Z,29.3446
2019-03-30T11:46:19.155Z,29.2714
2019-03-30T11:47:21.447Z,29.3034
2019-03-30T11:48:23.751Z,29.3202
2019-03-30T11:49:26.050Z,29.3797
2019-03-30T11:50:28.358Z,29.4209
2019-03-30T11:51:30.689Z,29.4499
2019-03-30T11:52:32.995Z,29.3492
2019-03-30T11:53:35.290Z,29.2897
2019-03-30T11:54:37.582Z,29.2164
2019-03-30T11:55:39.877Z,29.2012
2019-03-30T11:56:42.184Z,29.1875
2019-03-30T11:57:44.478Z,29.0379
2019-03-30T11:58:46.774Z,28.2078
2019-03-30T11:59:49.165Z,28.6946
2019-03-30T12:00:51.464Z,28.2078
2019-03-30T12:01:53.804Z,27.8233
2019-03-30T12:02:56.096Z,28.0125
2019-03-30T12:03:58.392Z,28.3101
2019-03-30T12:05:00.688Z,27.8233
2019-03-30T12:06:02.982Z,27.4678
2019-03-30T12:07:05.335Z,27.8248
2019-03-30T12:08:07.702Z,28.2399
2019-03-30T12:09:10.015Z,27.6310
2019-03-30T12:10:12.302Z,27.6173
2019-03-30T12:11:14.599Z,27.0237
2019-03-30T12:12:16.937Z,26.8895
2019-03-30T12:13:19.236Z,27.3625
2019-03-30T12:14:21.529Z,27.4357
2019-03-30T12:15:23.852Z,27.4113
2019-03-30T12:16:26.159Z,27.7058
2019-03-30T12:17:28.499Z,27.9301
2019-03-30T12:18:30.797Z,28.4062
2019-03-30T12:19:33.092Z,28.3635
2019-03-30T12:20:35.389Z,28.5283
2019-03-30T12:21:37.682Z,28.4825
2019-03-30T12:22:40.015Z,28.3635
2019-03-30T12:23:42.761Z,28.0568
2019-03-30T12:24:45.220Z,28.4230
2019-03-30T12:25:47.533Z,28.4230
2019-03-30T12:26:49.821Z,28.2460
2019-03-30T12:27:52.115Z,28.0842
2019-03-30T12:28:54.488Z,28.4230
2019-03-30T12:29:56.779Z,28.3467
2019-03-30T12:30:59.073Z,28.3772
2019-03-30T12:32:01.363Z,28.3650
2019-03-30T12:33:03.673Z,28.4245
2019-03-30T12:34:06.051Z,28.1865
2019-03-30T12:35:08.353Z,26.8254
2019-03-30T12:36:10.656Z,26.8864
2019-03-30T12:37:12.946Z,26.9322
2019-03-30T12:38:15.253Z,27.1687
2019-03-30T12:39:17.563Z,26.7399